sensor_id;sensor_type;location;lat;lon;timestamp;temperature;humidity
22787;DHT22;63134;52.020;4.714;2024-02-23T00:01:18;7.20;99.90
22787;DHT22;63134;52.020;4.714;2024-02-23T00:04:04;7.20;99.90
22787;DHT22;63134;52.020;4.714;2024-02-23T00:06:51;7.20;99.90
22787;DHT22;63134;52.020;4.714;2024-02-23T00:09:37;7.40;99.90
22787;DHT22;63134;52.020;4.714;2024-02-23T00:12:22;7.40;99.90
22787;DHT22;63134;52.020;4.714;2024-02-23T00:15:08;7.40;99.90
22787;DHT22;63134;52.020;4.714;2024-02-23T00:17:54;7.40;99.90
22787;DHT22;63134;52.020;4.714;2024-02-23T00:20:39;7.40;99.90
22787;DHT22;63134;52.020;4.714;2024-02-23T00:23:25;7.40;99.90
22787;DHT22;63134;52.020;4.714;2024-02-23T00:26:10;7.40;99.90
22787;DHT22;63134;52.020;4.714;2024-02-23T00:28:56;7.40;99.90
22787;DHT22;63134;52.020;4.714;2024-02-23T00:31:42;7.30;99.90
22787;DHT22;63134;52.020;4.714;2024-02-23T00:34:27;7.40;99.90
22787;DHT22;63134;52.020;4.714;2024-02-23T00:37:15;7.50;99.90
22787;DHT22;63134;52.020;4.714;2024-02-23T00:40:02;7.40;99.90
22787;DHT22;63134;52.020;4.714;2024-02-23T00:42:49;7.00;99.90
22787;DHT22;63134;52.020;4.714;2024-02-23T00:45:35;6.70;99.90
22787;DHT22;63134;52.020;4.714;2024-02-23T00:48:20;6.50;99.90
22787;DHT22;63134;52.020;4.714;2024-02-23T00:51:06;6.50;99.90
22787;DHT22;63134;52.020;4.714;2024-02-23T00:53:52;6.50;99.90
22787;DHT22;63134;52.020;4.714;2024-02-23T00:56:38;6.40;99.90
22787;DHT22;63134;52.020;4.714;2024-02-23T00:59:35;6.20;99.90
22787;DHT22;63134;52.020;4.714;2024-02-23T01:02:21;6.20;99.90
22787;DHT22;63134;52.020;4.714;2024-02-23T01:05:06;6.20;99.90
22787;DHT22;63134;52.020;4.714;2024-02-23T01:07:54;6.20;99.90
22787;DHT22;63134;52.020;4.714;2024-02-23T01:10:40;6.20;99.90
22787;DHT22;63134;52.020;4.714;2024-02-23T01:13:25;6.30;99.90
22787;DHT22;63134;52.020;4.714;2024-02-23T01:16:11;6.30;99.90
22787;DHT22;63134;52.020;4.714;2024-02-23T01:18:56;6.30;99.90
22787;DHT22;63134;52.020;4.714;2024-02-23T01:21:42;6.40;99.90
22787;DHT22;63134;52.020;4.714;2024-02-23T01:24:28;6.40;99.90
22787;DHT22;63134;52.020;4.714;2024-02-23T01:27:14;6.40;99.90
22787;DHT22;63134;52.020;4.714;2024-02-23T01:30:00;6.50;99.90
22787;DHT22;63134;52.020;4.714;2024-02-23T01:32:46;6.60;99.90
22787;DHT22;63134;52.020;4.714;2024-02-23T01:35:31;6.60;99.90
22787;DHT22;63134;52.020;4.714;2024-02-23T01:38:17;6.60;99.90
22787;DHT22;63134;52.020;4.714;2024-02-23T01:41:06;6.60;99.90
22787;DHT22;63134;52.020;4.714;2024-02-23T01:43:52;6.60;99.90
22787;DHT22;63134;52.020;4.714;2024-02-23T01:46:37;6.60;99.90
22787;DHT22;63134;52.020;4.714;2024-02-23T01:49:23;6.70;99.90
22787;DHT22;63134;52.020;4.714;2024-02-23T01:52:15;6.60;99.90
22787;DHT22;63134;52.020;4.714;2024-02-23T01:55:01;6.60;99.90
22787;DHT22;63134;52.020;4.714;2024-02-23T01:57:48;6.60;99.90
22787;DHT22;63134;52.020;4.714;2024-02-23T02:00:35;6.60;99.90
22787;DHT22;63134;52.020;4.714;2024-02-23T02:03:21;6.70;99.90
22787;DHT22;63134;52.020;4.714;2024-02-23T02:06:09;6.60;99.90
22787;DHT22;63134;52.020;4.714;2024-02-23T02:08:55;6.60;99.90
22787;DHT22;63134;52.020;4.714;2024-02-23T02:11:48;6.60;99.90
22787;DHT22;63134;52.020;4.714;2024-02-23T02:14:34;6.70;99.90
22787;DHT22;63134;52.020;4.714;2024-02-23T02:17:20;6.70;99.90
22787;DHT22;63134;52.020;4.714;2024-02-23T02:20:07;6.80;99.90
22787;DHT22;63134;52.020;4.714;2024-02-23T02:22:56;6.80;99.90
22787;DHT22;63134;52.020;4.714;2024-02-23T02:25:41;6.90;99.90
22787;DHT22;63134;52.020;4.714;2024-02-23T02:28:27;6.90;99.90
22787;DHT22;63134;52.020;4.714;2024-02-23T02:31:13;6.90;99.90
22787;DHT22;63134;52.020;4.714;2024-02-23T02:33:58;6.80;99.90
22787;DHT22;63134;52.020;4.714;2024-02-23T02:36:43;6.80;99.90
22787;DHT22;63134;52.020;4.714;2024-02-23T02:39:29;6.70;99.90
22787;DHT22;63134;52.020;4.714;2024-02-23T02:42:15;6.60;99.90
22787;DHT22;63134;52.020;4.714;2024-02-23T02:45:01;6.60;99.90
22787;DHT22;63134;52.020;4.714;2024-02-23T02:47:47;6.60;99.90
22787;DHT22;63134;52.020;4.714;2024-02-23T02:50:32;6.60;99.90
22787;DHT22;63134;52.020;4.714;2024-02-23T02:53:18;6.50;99.90
22787;DHT22;63134;52.020;4.714;2024-02-23T02:56:06;6.50;99.90
22787;DHT22;63134;52.020;4.714;2024-02-23T02:58:52;6.40;99.90
22787;DHT22;63134;52.020;4.714;2024-02-23T03:01:37;6.30;99.90
22787;DHT22;63134;52.020;4.714;2024-02-23T03:04:23;6.30;99.90
22787;DHT22;63134;52.020;4.714;2024-02-23T03:07:09;6.30;99.90
22787;DHT22;63134;52.020;4.714;2024-02-23T03:09:54;6.30;99.90
22787;DHT22;63134;52.020;4.714;2024-02-23T03:12:40;6.20;99.90
22787;DHT22;63134;52.020;4.714;2024-02-23T03:15:25;6.20;99.90
22787;DHT22;63134;52.020;4.714;2024-02-23T03:18:12;6.10;99.90
22787;DHT22;63134;52.020;4.714;2024-02-23T03:21:00;6.10;99.90
22787;DHT22;63134;52.020;4.714;2024-02-23T03:23:45;6.10;99.90
22787;DHT22;63134;52.020;4.714;2024-02-23T03:26:31;6.00;99.90
22787;DHT22;63134;52.020;4.714;2024-02-23T03:29:16;6.00;99.90
22787;DHT22;63134;52.020;4.714;2024-02-23T03:32:02;5.90;99.90
22787;DHT22;63134;52.020;4.714;2024-02-23T03:34:48;5.90;99.90
22787;DHT22;63134;52.020;4.714;2024-02-23T03:37:34;5.90;99.90
22787;DHT22;63134;52.020;4.714;2024-02-23T03:40:19;5.80;99.90
22787;DHT22;63134;52.020;4.714;2024-02-23T03:43:05;5.80;99.90
22787;DHT22;63134;52.020;4.714;2024-02-23T03:45:51;5.80;99.90
22787;DHT22;63134;52.020;4.714;2024-02-23T03:48:36;5.80;99.90
22787;DHT22;63134;52.020;4.714;2024-02-23T03:51:22;5.70;99.90
22787;DHT22;63134;52.020;4.714;2024-02-23T03:54:07;5.70;99.90
22787;DHT22;63134;52.020;4.714;2024-02-23T03:56:53;5.70;99.90
22787;DHT22;63134;52.020;4.714;2024-02-23T03:59:38;5.70;99.90
22787;DHT22;63134;52.020;4.714;2024-02-23T04:02:24;5.70;99.90
22787;DHT22;63134;52.020;4.714;2024-02-23T04:05:09;5.70;99.90
22787;DHT22;63134;52.020;4.714;2024-02-23T04:07:55;5.70;99.90
22787;DHT22;63134;52.020;4.714;2024-02-23T04:10:40;5.70;99.90
22787;DHT22;63134;52.020;4.714;2024-02-23T04:13:26;5.70;99.90
22787;DHT22;63134;52.020;4.714;2024-02-23T04:16:12;5.60;99.90
22787;DHT22;63134;52.020;4.714;2024-02-23T04:18:57;5.60;99.90
22787;DHT22;63134;52.020;4.714;2024-02-23T04:21:44;5.60;99.90
22787;DHT22;63134;52.020;4.714;2024-02-23T04:24:30;5.60;99.90
22787;DHT22;63134;52.020;4.714;2024-02-23T04:27:15;5.70;99.90
22787;DHT22;63134;52.020;4.714;2024-02-23T04:30:01;5.70;99.90
22787;DHT22;63134;52.020;4.714;2024-02-23T04:32:47;5.80;99.90
22787;DHT22;63134;52.020;4.714;2024-02-23T04:35:33;5.90;99.90
22787;DHT22;63134;52.020;4.714;2024-02-23T04:38:19;6.00;99.90
22787;DHT22;63134;52.020;4.714;2024-02-23T04:41:05;6.00;99.90
22787;DHT22;63134;52.020;4.714;2024-02-23T04:43:51;6.00;99.90
22787;DHT22;63134;52.020;4.714;2024-02-23T04:46:37;6.20;99.90
22787;DHT22;63134;52.020;4.714;2024-02-23T04:49:23;6.20;99.90
22787;DHT22;63134;52.020;4.714;2024-02-23T04:52:09;6.30;99.90
22787;DHT22;63134;52.020;4.714;2024-02-23T04:54:54;6.20;99.90
22787;DHT22;63134;52.020;4.714;2024-02-23T04:57:40;6.20;99.90
22787;DHT22;63134;52.020;4.714;2024-02-23T05:00:25;6.30;99.90
22787;DHT22;63134;52.020;4.714;2024-02-23T05:03:18;6.30;99.90
22787;DHT22;63134;52.020;4.714;2024-02-23T05:06:04;6.30;99.90
22787;DHT22;63134;52.020;4.714;2024-02-23T05:08:50;6.30;99.90
22787;DHT22;63134;52.020;4.714;2024-02-23T05:11:36;6.50;99.90
22787;DHT22;63134;52.020;4.714;2024-02-23T05:14:22;6.60;99.90
22787;DHT22;63134;52.020;4.714;2024-02-23T05:17:07;6.70;99.90
22787;DHT22;63134;52.020;4.714;2024-02-23T05:19:53;6.80;99.90
22787;DHT22;63134;52.020;4.714;2024-02-23T05:22:39;6.80;99.90
22787;DHT22;63134;52.020;4.714;2024-02-23T05:25:27;6.80;99.90
22787;DHT22;63134;52.020;4.714;2024-02-23T05:28:13;6.80;99.90
22787;DHT22;63134;52.020;4.714;2024-02-23T05:30:58;6.90;99.90
22787;DHT22;63134;52.020;4.714;2024-02-23T05:33:43;6.90;99.90
22787;DHT22;63134;52.020;4.714;2024-02-23T05:36:32;6.90;99.90
22787;DHT22;63134;52.020;4.714;2024-02-23T05:39:18;6.80;99.90
22787;DHT22;63134;52.020;4.714;2024-02-23T05:42:04;6.90;99.90
22787;DHT22;63134;52.020;4.714;2024-02-23T05:44:49;6.80;99.90
22787;DHT22;63134;52.020;4.714;2024-02-23T05:47:38;6.80;99.90
22787;DHT22;63134;52.020;4.714;2024-02-23T05:50:26;6.80;99.90
22787;DHT22;63134;52.020;4.714;2024-02-23T05:53:12;6.80;99.90
22787;DHT22;63134;52.020;4.714;2024-02-23T05:55:57;6.80;99.90
22787;DHT22;63134;52.020;4.714;2024-02-23T05:58:43;6.90;99.90
22787;DHT22;63134;52.020;4.714;2024-02-23T06:01:28;6.90;99.90
22787;DHT22;63134;52.020;4.714;2024-02-23T06:04:14;6.90;99.90
22787;DHT22;63134;52.020;4.714;2024-02-23T06:06:59;7.00;99.90
22787;DHT22;63134;52.020;4.714;2024-02-23T06:09:45;6.90;99.90
22787;DHT22;63134;52.020;4.714;2024-02-23T06:12:31;6.90;99.90
22787;DHT22;63134;52.020;4.714;2024-02-23T06:15:16;7.00;99.90
22787;DHT22;63134;52.020;4.714;2024-02-23T06:18:02;6.90;99.90
22787;DHT22;63134;52.020;4.714;2024-02-23T06:20:49;6.90;99.90
22787;DHT22;63134;52.020;4.714;2024-02-23T06:23:35;6.80;99.90
22787;DHT22;63134;52.020;4.714;2024-02-23T06:26:21;6.90;99.90
22787;DHT22;63134;52.020;4.714;2024-02-23T06:29:06;6.90;99.90
22787;DHT22;63134;52.020;4.714;2024-02-23T06:31:56;6.90;99.90
22787;DHT22;63134;52.020;4.714;2024-02-23T06:34:42;6.90;99.90
22787;DHT22;63134;52.020;4.714;2024-02-23T06:37:27;6.90;99.90
22787;DHT22;63134;52.020;4.714;2024-02-23T06:40:13;6.90;99.90
22787;DHT22;63134;52.020;4.714;2024-02-23T06:42:58;6.90;99.90
22787;DHT22;63134;52.020;4.714;2024-02-23T06:45:45;6.90;99.90
22787;DHT22;63134;52.020;4.714;2024-02-23T06:48:30;6.90;99.90
22787;DHT22;63134;52.020;4.714;2024-02-23T06:51:18;7.00;99.90
22787;DHT22;63134;52.020;4.714;2024-02-23T06:54:05;6.90;99.40
22787;DHT22;63134;52.020;4.714;2024-02-23T06:56:51;7.00;99.80
22787;DHT22;63134;52.020;4.714;2024-02-23T06:59:36;7.00;99.20
22787;DHT22;63134;52.020;4.714;2024-02-23T07:02:22;7.10;99.00
22787;DHT22;63134;52.020;4.714;2024-02-23T07:05:07;7.10;99.00
22787;DHT22;63134;52.020;4.714;2024-02-23T07:07:53;7.10;98.80
22787;DHT22;63134;52.020;4.714;2024-02-23T07:10:39;7.20;98.80
22787;DHT22;63134;52.020;4.714;2024-02-23T07:13:25;7.10;98.20
22787;DHT22;63134;52.020;4.714;2024-02-23T07:16:11;7.20;98.10
22787;DHT22;63134;52.020;4.714;2024-02-23T07:18:57;7.30;98.20
22787;DHT22;63134;52.020;4.714;2024-02-23T07:21:43;7.30;97.80
22787;DHT22;63134;52.020;4.714;2024-02-23T07:24:28;7.30;97.70
22787;DHT22;63134;52.020;4.714;2024-02-23T07:27:14;7.30;97.50
22787;DHT22;63134;52.020;4.714;2024-02-23T07:29:59;7.20;97.10
22787;DHT22;63134;52.020;4.714;2024-02-23T07:32:45;7.20;97.30
22787;DHT22;63134;52.020;4.714;2024-02-23T07:35:37;7.20;97.10
22787;DHT22;63134;52.020;4.714;2024-02-23T07:38:23;7.20;97.40
22787;DHT22;63134;52.020;4.714;2024-02-23T07:41:08;7.20;97.50
22787;DHT22;63134;52.020;4.714;2024-02-23T07:43:56;7.20;97.60
22787;DHT22;63134;52.020;4.714;2024-02-23T07:46:42;7.20;97.60
22787;DHT22;63134;52.020;4.714;2024-02-23T07:49:27;7.20;97.80
22787;DHT22;63134;52.020;4.714;2024-02-23T07:52:13;7.10;98.00
22787;DHT22;63134;52.020;4.714;2024-02-23T07:54:59;7.10;98.50
22787;DHT22;63134;52.020;4.714;2024-02-23T07:57:48;7.00;99.10
22787;DHT22;63134;52.020;4.714;2024-02-23T08:00:33;6.90;99.70
22787;DHT22;63134;52.020;4.714;2024-02-23T08:03:23;6.80;99.90
22787;DHT22;63134;52.020;4.714;2024-02-23T08:06:09;6.70;99.90
22787;DHT22;63134;52.020;4.714;2024-02-23T08:08:54;6.70;99.90
22787;DHT22;63134;52.020;4.714;2024-02-23T08:11:41;6.70;99.90
22787;DHT22;63134;52.020;4.714;2024-02-23T08:14:26;6.60;99.90
22787;DHT22;63134;52.020;4.714;2024-02-23T08:17:12;6.70;99.90
22787;DHT22;63134;52.020;4.714;2024-02-23T08:19:58;6.70;99.90
22787;DHT22;63134;52.020;4.714;2024-02-23T08:22:43;6.70;99.90
22787;DHT22;63134;52.020;4.714;2024-02-23T08:25:29;6.80;99.90
22787;DHT22;63134;52.020;4.714;2024-02-23T08:28:14;6.80;99.90
22787;DHT22;63134;52.020;4.714;2024-02-23T08:31:00;6.70;99.90
22787;DHT22;63134;52.020;4.714;2024-02-23T08:33:45;6.80;99.90
22787;DHT22;63134;52.020;4.714;2024-02-23T08:36:32;6.80;99.90
22787;DHT22;63134;52.020;4.714;2024-02-23T08:39:17;6.80;99.90
22787;DHT22;63134;52.020;4.714;2024-02-23T08:42:03;6.80;99.90
22787;DHT22;63134;52.020;4.714;2024-02-23T08:44:48;6.80;99.90
22787;DHT22;63134;52.020;4.714;2024-02-23T08:47:34;6.80;99.90
22787;DHT22;63134;52.020;4.714;2024-02-23T08:50:21;6.70;99.90
22787;DHT22;63134;52.020;4.714;2024-02-23T08:53:07;6.60;99.90
22787;DHT22;63134;52.020;4.714;2024-02-23T08:55:52;6.60;99.90
22787;DHT22;63134;52.020;4.714;2024-02-23T08:58:38;6.60;99.90
22787;DHT22;63134;52.020;4.714;2024-02-23T09:01:23;6.70;99.90
22787;DHT22;63134;52.020;4.714;2024-02-23T09:04:09;6.90;99.90
22787;DHT22;63134;52.020;4.714;2024-02-23T09:06:54;7.00;99.90
22787;DHT22;63134;52.020;4.714;2024-02-23T09:09:40;7.10;99.90
22787;DHT22;63134;52.020;4.714;2024-02-23T09:12:26;7.20;99.90
22787;DHT22;63134;52.020;4.714;2024-02-23T09:15:12;7.30;99.90
22787;DHT22;63134;52.020;4.714;2024-02-23T09:17:57;7.50;99.90
22787;DHT22;63134;52.020;4.714;2024-02-23T09:20:42;7.60;99.90
22787;DHT22;63134;52.020;4.714;2024-02-23T09:23:28;7.80;99.90
22787;DHT22;63134;52.020;4.714;2024-02-23T09:26:14;7.80;99.90
22787;DHT22;63134;52.020;4.714;2024-02-23T09:29:00;8.00;99.90
22787;DHT22;63134;52.020;4.714;2024-02-23T09:31:45;8.20;99.90
22787;DHT22;63134;52.020;4.714;2024-02-23T09:34:31;8.00;99.90
22787;DHT22;63134;52.020;4.714;2024-02-23T09:37:16;7.80;99.90
22787;DHT22;63134;52.020;4.714;2024-02-23T09:40:02;7.80;99.90
22787;DHT22;63134;52.020;4.714;2024-02-23T09:42:58;7.90;99.90
22787;DHT22;63134;52.020;4.714;2024-02-23T09:45:45;8.00;99.90
22787;DHT22;63134;52.020;4.714;2024-02-23T09:48:31;7.90;99.90
22787;DHT22;63134;52.020;4.714;2024-02-23T09:51:19;8.00;99.90
22787;DHT22;63134;52.020;4.714;2024-02-23T09:54:06;8.10;99.90
22787;DHT22;63134;52.020;4.714;2024-02-23T09:56:52;8.20;99.70
22787;DHT22;63134;52.020;4.714;2024-02-23T09:59:38;8.30;99.40
22787;DHT22;63134;52.020;4.714;2024-02-23T10:02:25;8.40;99.30
22787;DHT22;63134;52.020;4.714;2024-02-23T10:05:11;8.40;98.80
22787;DHT22;63134;52.020;4.714;2024-02-23T10:07:58;8.50;98.70
22787;DHT22;63134;52.020;4.714;2024-02-23T10:10:46;8.50;98.30
22787;DHT22;63134;52.020;4.714;2024-02-23T10:13:31;8.60;98.10
22787;DHT22;63134;52.020;4.714;2024-02-23T10:16:17;8.70;97.80
22787;DHT22;63134;52.020;4.714;2024-02-23T10:19:03;8.70;97.30
22787;DHT22;63134;52.020;4.714;2024-02-23T10:21:48;8.60;97.50
22787;DHT22;63134;52.020;4.714;2024-02-23T10:24:34;8.60;97.60
22787;DHT22;63134;52.020;4.714;2024-02-23T10:27:21;8.70;97.80
22787;DHT22;63134;52.020;4.714;2024-02-23T10:30:09;8.80;97.30
22787;DHT22;63134;52.020;4.714;2024-02-23T10:32:57;9.00;96.70
22787;DHT22;63134;52.020;4.714;2024-02-23T10:35:45;9.20;96.00
22787;DHT22;63134;52.020;4.714;2024-02-23T10:38:32;9.20;95.60
22787;DHT22;63134;52.020;4.714;2024-02-23T10:41:18;9.30;95.40
22787;DHT22;63134;52.020;4.714;2024-02-23T10:44:05;9.30;95.70
22787;DHT22;63134;52.020;4.714;2024-02-23T10:46:52;9.30;94.90
22787;DHT22;63134;52.020;4.714;2024-02-23T10:49:38;9.40;94.50
22787;DHT22;63134;52.020;4.714;2024-02-23T10:52:26;9.50;94.00
22787;DHT22;63134;52.020;4.714;2024-02-23T10:55:14;9.60;93.60
22787;DHT22;63134;52.020;4.714;2024-02-23T10:58:00;9.70;93.70
22787;DHT22;63134;52.020;4.714;2024-02-23T11:00:47;9.70;93.10
22787;DHT22;63134;52.020;4.714;2024-02-23T11:03:36;9.90;93.50
22787;DHT22;63134;52.020;4.714;2024-02-23T11:06:27;10.10;92.10
22787;DHT22;63134;52.020;4.714;2024-02-23T11:09:13;10.40;91.90
22787;DHT22;63134;52.020;4.714;2024-02-23T11:11:59;10.60;91.20
22787;DHT22;63134;52.020;4.714;2024-02-23T11:14:50;10.80;90.20
22787;DHT22;63134;52.020;4.714;2024-02-23T11:17:36;10.60;89.70
22787;DHT22;63134;52.020;4.714;2024-02-23T11:20:34;10.60;89.30
22787;DHT22;63134;52.020;4.714;2024-02-23T11:23:20;10.60;89.20
22787;DHT22;63134;52.020;4.714;2024-02-23T11:26:06;10.70;88.80
22787;DHT22;63134;52.020;4.714;2024-02-23T11:28:56;10.90;89.10
22787;DHT22;63134;52.020;4.714;2024-02-23T11:31:46;11.20;88.40
22787;DHT22;63134;52.020;4.714;2024-02-23T11:34:31;11.10;87.20
22787;DHT22;63134;52.020;4.714;2024-02-23T11:37:19;11.00;88.60
22787;DHT22;63134;52.020;4.714;2024-02-23T11:40:05;10.80;87.40
22787;DHT22;63134;52.020;4.714;2024-02-23T11:42:52;10.80;88.20
22787;DHT22;63134;52.020;4.714;2024-02-23T11:45:40;11.10;88.50
22787;DHT22;63134;52.020;4.714;2024-02-23T11:48:26;11.20;86.30
22787;DHT22;63134;52.020;4.714;2024-02-23T11:51:15;11.30;85.50
22787;DHT22;63134;52.020;4.714;2024-02-23T11:54:01;11.40;84.90
22787;DHT22;63134;52.020;4.714;2024-02-23T11:56:47;11.50;84.10
22787;DHT22;63134;52.020;4.714;2024-02-23T11:59:34;11.60;84.50
22787;DHT22;63134;52.020;4.714;2024-02-23T12:02:19;12.00;83.10
22787;DHT22;63134;52.020;4.714;2024-02-23T12:05:05;12.30;82.30
22787;DHT22;63134;52.020;4.714;2024-02-23T12:07:51;12.30;81.90
22787;DHT22;63134;52.020;4.714;2024-02-23T12:10:37;12.60;82.50
22787;DHT22;63134;52.020;4.714;2024-02-23T12:13:23;12.90;81.90
22787;DHT22;63134;52.020;4.714;2024-02-23T12:16:08;13.10;78.40
22787;DHT22;63134;52.020;4.714;2024-02-23T12:18:57;13.50;77.60
22787;DHT22;63134;52.020;4.714;2024-02-23T12:21:45;13.40;76.80
22787;DHT22;63134;52.020;4.714;2024-02-23T12:24:31;13.40;76.60
22787;DHT22;63134;52.020;4.714;2024-02-23T12:27:17;13.90;75.80
22787;DHT22;63134;52.020;4.714;2024-02-23T12:30:04;13.70;74.60
22787;DHT22;63134;52.020;4.714;2024-02-23T12:32:49;13.80;74.30
22787;DHT22;63134;52.020;4.714;2024-02-23T12:35:35;14.30;74.00
22787;DHT22;63134;52.020;4.714;2024-02-23T12:38:21;15.10;71.50
22787;DHT22;63134;52.020;4.714;2024-02-23T12:41:07;15.80;68.90
22787;DHT22;63134;52.020;4.714;2024-02-23T12:43:56;15.50;66.30
22787;DHT22;63134;52.020;4.714;2024-02-23T12:46:41;15.90;66.10
22787;DHT22;63134;52.020;4.714;2024-02-23T12:49:26;16.40;65.30
22787;DHT22;63134;52.020;4.714;2024-02-23T12:52:15;16.90;60.70
22787;DHT22;63134;52.020;4.714;2024-02-23T12:55:00;16.60;61.30
22787;DHT22;63134;52.020;4.714;2024-02-23T12:57:46;15.90;61.90
22787;DHT22;63134;52.020;4.714;2024-02-23T13:00:31;15.70;64.10
22787;DHT22;63134;52.020;4.714;2024-02-23T13:03:17;15.60;65.80
22787;DHT22;63134;52.020;4.714;2024-02-23T13:06:03;16.10;64.30
22787;DHT22;63134;52.020;4.714;2024-02-23T13:08:48;15.90;60.60
22787;DHT22;63134;52.020;4.714;2024-02-23T13:11:34;15.00;63.30
22787;DHT22;63134;52.020;4.714;2024-02-23T13:14:20;14.70;66.50
22787;DHT22;63134;52.020;4.714;2024-02-23T13:17:05;14.80;67.90
22787;DHT22;63134;52.020;4.714;2024-02-23T13:19:51;14.60;66.30
22787;DHT22;63134;52.020;4.714;2024-02-23T13:22:52;14.60;66.20
22787;DHT22;63134;52.020;4.714;2024-02-23T13:25:39;14.20;66.90
22787;DHT22;63134;52.020;4.714;2024-02-23T13:28:25;14.00;66.50
22787;DHT22;63134;52.020;4.714;2024-02-23T13:31:11;13.70;67.20
22787;DHT22;63134;52.020;4.714;2024-02-23T13:33:56;13.50;68.50
22787;DHT22;63134;52.020;4.714;2024-02-23T13:36:42;13.30;69.90
22787;DHT22;63134;52.020;4.714;2024-02-23T13:39:28;13.10;70.90
22787;DHT22;63134;52.020;4.714;2024-02-23T13:42:13;13.10;72.50
22787;DHT22;63134;52.020;4.714;2024-02-23T13:44:59;13.00;71.40
22787;DHT22;63134;52.020;4.714;2024-02-23T13:47:56;12.90;70.50
22787;DHT22;63134;52.020;4.714;2024-02-23T13:50:42;12.80;72.70
22787;DHT22;63134;52.020;4.714;2024-02-23T13:53:28;12.60;70.30
22787;DHT22;63134;52.020;4.714;2024-02-23T13:56:13;12.60;73.10
22787;DHT22;63134;52.020;4.714;2024-02-23T13:58:59;12.60;73.70
22787;DHT22;63134;52.020;4.714;2024-02-23T14:01:44;12.60;72.40
22787;DHT22;63134;52.020;4.714;2024-02-23T14:04:30;12.30;72.40
22787;DHT22;63134;52.020;4.714;2024-02-23T14:07:16;12.20;74.10
22787;DHT22;63134;52.020;4.714;2024-02-23T14:10:02;12.30;75.20
22787;DHT22;63134;52.020;4.714;2024-02-23T14:12:48;12.20;74.20
22787;DHT22;63134;52.020;4.714;2024-02-23T14:15:35;12.00;75.80
22787;DHT22;63134;52.020;4.714;2024-02-23T14:18:21;11.80;76.10
22787;DHT22;63134;52.020;4.714;2024-02-23T14:21:06;11.60;77.30
22787;DHT22;63134;52.020;4.714;2024-02-23T14:23:55;11.30;77.90
22787;DHT22;63134;52.020;4.714;2024-02-23T14:26:40;11.10;78.70
22787;DHT22;63134;52.020;4.714;2024-02-23T14:29:26;11.10;79.20
22787;DHT22;63134;52.020;4.714;2024-02-23T14:32:16;11.10;79.10
22787;DHT22;63134;52.020;4.714;2024-02-23T14:35:02;11.10;78.40
22787;DHT22;63134;52.020;4.714;2024-02-23T14:37:49;10.90;78.70
22787;DHT22;63134;52.020;4.714;2024-02-23T14:40:35;10.90;80.00
22787;DHT22;63134;52.020;4.714;2024-02-23T14:43:20;10.80;80.70
22787;DHT22;63134;52.020;4.714;2024-02-23T14:46:06;10.80;80.30
22787;DHT22;63134;52.020;4.714;2024-02-23T14:48:51;10.80;80.70
22787;DHT22;63134;52.020;4.714;2024-02-23T14:51:38;10.90;81.80
22787;DHT22;63134;52.020;4.714;2024-02-23T14:54:24;10.90;79.80
22787;DHT22;63134;52.020;4.714;2024-02-23T14:57:10;10.80;78.80
22787;DHT22;63134;52.020;4.714;2024-02-23T14:59:58;10.90;79.10
22787;DHT22;63134;52.020;4.714;2024-02-23T15:02:44;11.00;79.60
22787;DHT22;63134;52.020;4.714;2024-02-23T15:05:30;11.10;79.80
22787;DHT22;63134;52.020;4.714;2024-02-23T15:08:16;12.00;79.20
22787;DHT22;63134;52.020;4.714;2024-02-23T15:11:02;13.40;76.50
22787;DHT22;63134;52.020;4.714;2024-02-23T15:13:47;14.70;71.60
22787;DHT22;63134;52.020;4.714;2024-02-23T15:16:33;14.80;67.80
22787;DHT22;63134;52.020;4.714;2024-02-23T15:19:18;14.30;68.20
22787;DHT22;63134;52.020;4.714;2024-02-23T15:22:04;13.80;69.40
22787;DHT22;63134;52.020;4.714;2024-02-23T15:24:50;13.30;70.40
22787;DHT22;63134;52.020;4.714;2024-02-23T15:27:36;12.90;72.40
22787;DHT22;63134;52.020;4.714;2024-02-23T15:30:26;12.50;72.40
22787;DHT22;63134;52.020;4.714;2024-02-23T15:33:11;12.10;74.20
22787;DHT22;63134;52.020;4.714;2024-02-23T15:35:57;11.90;76.70
22787;DHT22;63134;52.020;4.714;2024-02-23T15:38:42;11.60;77.10
22787;DHT22;63134;52.020;4.714;2024-02-23T15:41:32;11.40;77.90
22787;DHT22;63134;52.020;4.714;2024-02-23T15:44:19;11.20;79.90
22787;DHT22;63134;52.020;4.714;2024-02-23T15:47:05;11.10;80.50
22787;DHT22;63134;52.020;4.714;2024-02-23T15:49:51;10.80;81.20
22787;DHT22;63134;52.020;4.714;2024-02-23T15:52:56;10.70;82.90
22787;DHT22;63134;52.020;4.714;2024-02-23T15:55:42;10.60;83.50
22787;DHT22;63134;52.020;4.714;2024-02-23T15:58:28;10.60;84.50
22787;DHT22;63134;52.020;4.714;2024-02-23T16:01:14;10.50;84.40
22787;DHT22;63134;52.020;4.714;2024-02-23T16:03:59;10.40;85.50
22787;DHT22;63134;52.020;4.714;2024-02-23T16:06:45;10.40;86.00
22787;DHT22;63134;52.020;4.714;2024-02-23T16:09:31;10.30;86.10
22787;DHT22;63134;52.020;4.714;2024-02-23T16:12:16;10.20;86.20
22787;DHT22;63134;52.020;4.714;2024-02-23T16:15:02;10.20;86.70
22787;DHT22;63134;52.020;4.714;2024-02-23T16:17:48;10.10;85.30
22787;DHT22;63134;52.020;4.714;2024-02-23T16:20:34;10.00;83.70
22787;DHT22;63134;52.020;4.714;2024-02-23T16:23:19;9.80;83.80
22787;DHT22;63134;52.020;4.714;2024-02-23T16:26:05;9.70;82.70
22787;DHT22;63134;52.020;4.714;2024-02-23T16:28:51;9.70;84.00
22787;DHT22;63134;52.020;4.714;2024-02-23T16:31:37;9.70;83.20
22787;DHT22;63134;52.020;4.714;2024-02-23T16:34:23;9.50;83.00
22787;DHT22;63134;52.020;4.714;2024-02-23T16:37:08;9.40;84.00
22787;DHT22;63134;52.020;4.714;2024-02-23T16:39:54;9.40;84.70
22787;DHT22;63134;52.020;4.714;2024-02-23T16:42:39;9.40;85.80
22787;DHT22;63134;52.020;4.714;2024-02-23T16:45:29;9.30;85.60
22787;DHT22;63134;52.020;4.714;2024-02-23T16:48:15;9.30;86.70
22787;DHT22;63134;52.020;4.714;2024-02-23T16:51:01;9.30;86.70
22787;DHT22;63134;52.020;4.714;2024-02-23T16:53:47;9.20;88.00
22787;DHT22;63134;52.020;4.714;2024-02-23T16:56:34;9.20;88.50
22787;DHT22;63134;52.020;4.714;2024-02-23T16:59:20;9.10;89.40
22787;DHT22;63134;52.020;4.714;2024-02-23T17:02:05;9.10;90.20
22787;DHT22;63134;52.020;4.714;2024-02-23T17:04:51;9.00;90.40
22787;DHT22;63134;52.020;4.714;2024-02-23T17:07:36;8.90;90.90
22787;DHT22;63134;52.020;4.714;2024-02-23T17:10:22;8.80;91.30
22787;DHT22;63134;52.020;4.714;2024-02-23T17:13:08;8.70;91.70
22787;DHT22;63134;52.020;4.714;2024-02-23T17:15:54;8.50;92.00
22787;DHT22;63134;52.020;4.714;2024-02-23T17:18:39;8.40;92.50
22787;DHT22;63134;52.020;4.714;2024-02-23T17:21:25;8.30;92.80
22787;DHT22;63134;52.020;4.714;2024-02-23T17:24:13;8.10;93.00
22787;DHT22;63134;52.020;4.714;2024-02-23T17:26:59;8.00;93.30
22787;DHT22;63134;52.020;4.714;2024-02-23T17:29:44;7.80;93.80
22787;DHT22;63134;52.020;4.714;2024-02-23T17:32:30;7.70;94.20
22787;DHT22;63134;52.020;4.714;2024-02-23T17:35:16;7.40;94.40
22787;DHT22;63134;52.020;4.714;2024-02-23T17:38:04;7.30;94.90
22787;DHT22;63134;52.020;4.714;2024-02-23T17:40:50;7.20;95.20
22787;DHT22;63134;52.020;4.714;2024-02-23T17:43:40;7.10;95.50